Time;durP1;ratioP1;P1;durP2;ratioP2;P2;SDS_P1;SDS_P2;PMS_P1;PMS_P2;Temp;Humidity;BMP_temperature;BMP_pressure;BME280_temperature;BME280_humidity;BME280_pressure;Samples;Min_cycle;Max_cycle;Signal;HPM_P1;HPM_P2
2022/05/30 00:01:08;;;;;;;12.68;5.90;;;;;;;11.28;100.00;98938.40;1664851;86;21062;-72
2022/05/30 00:03:35;;;;;;;12.20;5.62;;;;;;;11.26;100.00;98939.63;1664645;85;21063;-72
2022/05/30 00:06:07;;;;;;;13.35;6.25;;;;;;;11.25;100.00;98924.44;1664328;86;21588;-72
2022/05/30 00:08:34;;;;;;;20.30;7.00;;;;;;;11.24;100.00;98916.81;1664679;85;21022;-71
2022/05/30 00:11:06;;;;;;;13.55;6.05;;;;;;;11.23;100.00;98907.05;1664545;85;21082;-71
2022/05/30 00:13:32;;;;;;;15.35;6.95;;;;;;;11.20;100.00;98892.04;1641592;86;21022;-72
2022/05/30 00:16:06;;;;;;;14.25;5.90;;;;;;;11.19;100.00;98883.63;1650892;87;21218;-73
2022/05/30 00:18:33;;;;;;;14.55;6.12;;;;;;;11.17;100.00;98882.14;1575320;91;21005;-73
2022/05/30 00:20:59;;;;;;;15.00;6.08;;;;;;;11.16;100.00;98876.44;1575501;91;21232;-73
2022/05/30 00:23:28;;;;;;;13.40;6.53;;;;;;;11.14;100.00;98869.05;1575687;90;21040;-72
2022/05/30 00:25:54;;;;;;;14.33;6.33;;;;;;;11.12;100.00;98858.42;1575365;90;21068;-72
2022/05/30 00:28:22;;;;;;;19.12;7.70;;;;;;;11.12;100.00;98844.89;1575561;91;21032;-72
2022/05/30 00:30:49;;;;;;;18.20;8.13;;;;;;;11.11;100.00;98831.57;1575497;91;21088;-72
2022/05/30 00:33:18;;;;;;;20.00;8.30;;;;;;;11.11;100.00;98812.11;1575243;90;21598;-72
2022/05/30 00:35:45;;;;;;;20.27;8.30;;;;;;;11.11;100.00;98785.05;1575624;91;21124;-72
2022/05/30 00:38:12;;;;;;;18.92;7.80;;;;;;;11.11;100.00;98758.53;1575457;91;21182;-73
2022/05/30 00:40:39;;;;;;;18.23;7.80;;;;;;;11.08;100.00;98725.94;1575507;91;21586;-72
2022/05/30 00:43:30;;;;;;;17.65;7.85;;;;;;;11.07;100.00;98711.30;1575439;91;21021;-72
2022/05/30 00:46:00;;;;;;;14.70;6.60;;;;;;;11.02;100.00;98703.26;1576649;88;21056;-73
2022/05/30 00:48:39;;;;;;;17.77;6.53;;;;;;;11.01;100.00;98689.44;1630882;88;21026;-73
2022/05/30 00:51:12;;;;;;;15.93;7.08;;;;;;;10.99;100.00;98677.97;1631167;88;21118;-72
2022/05/30 00:53:40;;;;;;;17.75;7.47;;;;;;;10.98;100.00;98656.05;1631017;88;21184;-72
2022/05/30 00:56:09;;;;;;;16.75;6.95;;;;;;;10.97;100.00;98620.55;1631231;87;21057;-72
2022/05/30 00:58:41;;;;;;;18.32;7.60;;;;;;;10.96;100.00;98574.28;1630987;88;21041;-72
2022/05/30 01:01:08;;;;;;;16.75;7.25;;;;;;;10.95;100.00;98531.22;1609519;87;21102;-73
2022/05/30 01:06:32;;;;;;;17.65;7.70;;;;;;;10.94;100.00;98495.24;1630745;88;21065;-71
2022/05/30 01:09:02;;;;;;;16.77;7.40;;;;;;;10.93;100.00;98464.35;1631034;88;21030;-72
2022/05/30 01:12:00;;;;;;;17.10;7.12;;;;;;;10.91;100.00;98451.03;1648224;86;21045;-71
2022/05/30 01:14:34;;;;;;;16.67;7.42;;;;;;;10.90;100.00;98407.45;1684863;84;21113;-71
2022/05/30 01:17:11;;;;;;;17.82;7.28;;;;;;;10.89;100.00;98372.50;1714208;84;21001;-73
2022/05/30 01:20:01;;;;;;;16.57;8.00;;;;;;;10.86;100.00;98339.16;1714320;84;21042;-73
2022/05/30 01:23:14;;;;;;;16.82;7.78;;;;;;;10.85;100.00;98314.50;1714000;84;21078;-71
2022/05/30 01:26:10;;;;;;;17.95;7.90;;;;;;;10.83;100.00;98305.25;1714308;84;21103;-71
2022/05/30 01:29:08;;;;;;;19.35;8.68;;;;;;;10.79;100.00;98304.85;1708459;84;21488;-73
2022/05/30 01:31:36;;;;;;;20.50;8.68;;;;;;;10.77;100.00;98284.50;1714239;84;21117;-73
2022/05/30 01:34:03;;;;;;;22.60;10.45;;;;;;;10.73;100.00;98264.33;1714195;84;21018;-71
2022/05/30 01:36:33;;;;;;;21.48;10.08;;;;;;;10.71;100.00;98248.34;1714009;84;21018;-73
2022/05/30 01:39:00;;;;;;;18.75;8.98;;;;;;;10.69;100.00;98227.44;1701069;83;21498;-73
2022/05/30 01:41:38;;;;;;;24.15;10.80;;;;;;;10.68;100.00;98210.08;1686347;85;21080;-71
2022/05/30 01:44:06;;;;;;;23.42;9.85;;;;;;;10.67;100.00;98193.57;1686327;84;21029;-71
2022/05/30 01:46:33;;;;;;;15.83;8.30;;;;;;;10.66;100.00;98174.33;1683895;85;20975;-70
2022/05/30 01:49:01;;;;;;;16.07;8.53;;;;;;;10.64;100.00;98163.73;1677058;86;21059;-71
2022/05/30 01:51:28;;;;;;;18.70;8.55;;;;;;;10.63;100.00;98156.16;1676957;86;21086;-72
2022/05/30 01:53:58;;;;;;;22.95;10.35;;;;;;;10.63;100.00;98139.13;1677197;85;20999;-73
2022/05/30 01:56:26;;;;;;;24.30;10.98;;;;;;;10.62;100.00;98125.29;1674437;86;21009;-71
2022/05/30 01:58:56;;;;;;;24.47;9.78;;;;;;;10.63;100.00;98121.02;1677066;86;21046;-71
2022/05/30 02:01:32;;;;;;;22.30;10.10;;;;;;;10.63;100.00;98106.69;1677196;85;21007;-72
2022/05/30 02:04:01;;;;;;;21.25;9.60;;;;;;;10.64;100.00;98096.16;1676879;85;21046;-72
2022/05/30 02:06:28;;;;;;;21.90;9.95;;;;;;;10.61;100.00;98087.98;1677199;85;21031;-71
2022/05/30 02:08:55;;;;;;;20.75;9.53;;;;;;;10.61;100.00;98085.81;1677143;86;21062;-72
2022/05/30 02:11:24;;;;;;;22.62;10.75;;;;;;;10.61;100.00;98078.53;1674353;86;21046;-71
2022/05/30 02:13:53;;;;;;;23.30;10.85;;;;;;;10.61;100.00;98070.95;1700524;84;21097;-72
2022/05/30 02:19:12;;;;;;;24.32;10.60;;;;;;;10.61;100.00;98054.73;1716363;83;20987;-71
2022/05/30 02:21:40;;;;;;;28.55;13.53;;;;;;;10.61;100.00;98050.68;1716179;83;21026;-71
2022/05/30 02:24:08;;;;;;;28.50;12.95;;;;;;;10.63;100.00;98041.83;1716129;84;21081;-70
2022/05/30 02:26:36;;;;;;;23.67;10.88;;;;;;;10.63;100.00;98033.19;1716124;84;21521;-73
2022/05/30 02:29:03;;;;;;;19.20;8.75;;;;;;;10.65;100.00;98028.91;1716372;83;20974;-73
2022/05/30 02:31:30;;;;;;;17.87;8.68;;;;;;;10.68;100.00;98016.81;1716002;83;21044;-72
2022/05/30 02:39:17;;;;;;;25.32;10.03;;;;;;;10.73;100.00;97988.60;1649500;85;21065;-78
2022/05/30 02:41:47;;;;;;;21.55;10.05;;;;;;;10.75;100.00;97978.42;1603250;89;21026;-78
2022/05/30 02:44:19;;;;;;;21.45;9.20;;;;;;;10.75;100.00;97975.72;1603481;90;21083;-78
2022/05/30 02:46:50;;;;;;;19.92;9.50;;;;;;;10.78;100.00;97970.69;1601303;90;21052;-77
2022/05/30 02:49:17;;;;;;;20.50;9.38;;;;;;;10.82;100.00;97969.72;1597993;90;21095;-77
2022/05/30 02:51:44;;;;;;;18.98;8.93;;;;;;;10.86;100.00;97968.75;1597589;90;21051;-79
2022/05/30 02:54:12;;;;;;;17.62;9.08;;;;;;;10.90;100.00;97959.95;1597735;90;21071;-77
2022/05/30 02:56:41;;;;;;;19.80;9.08;;;;;;;10.95;100.00;97956.05;1594909;90;21020;-79
2022/05/30 02:59:08;;;;;;;22.55;9.25;;;;;;;11.00;100.00;97945.39;1577585;90;21636;-78
2022/05/30 03:01:36;;;;;;;22.10;10.43;;;;;;;11.06;100.00;97936.89;1597766;90;21116;-78
2022/05/30 03:04:05;;;;;;;21.55;9.73;;;;;;;11.13;100.00;97920.59;1597961;90;21099;-79
2022/05/30 03:06:32;;;;;;;19.30;9.28;;;;;;;11.19;100.00;97912.41;1597712;90;21028;-78
2022/05/30 03:08:58;;;;;;;20.82;9.10;;;;;;;11.27;100.00;97917.20;1597719;90;21056;-79
2022/05/30 03:11:36;;;;;;;22.70;9.95;;;;;;;11.34;100.00;97922.00;1594164;90;21039;-77
2022/05/30 03:14:03;;;;;;;20.92;10.13;;;;;;;11.39;100.00;97915.38;1599043;89;21111;-78
2022/05/30 03:16:30;;;;;;;21.15;9.83;;;;;;;11.44;100.00;97908.77;1602559;90;21040;-79
2022/05/30 03:18:57;;;;;;;20.70;9.78;;;;;;;11.49;100.00;97905.35;1602491;90;21073;-79
2022/05/30 03:21:24;;;;;;;22.17;10.30;;;;;;;11.54;100.00;97910.40;1602637;89;21136;-78
2022/05/30 03:23:52;;;;;;;21.95;9.40;;;;;;;11.58;100.00;97922.95;1602377;90;21598;-78
2022/05/30 03:26:24;;;;;;;21.45;9.48;;;;;;;11.61;100.00;97936.53;1601739;90;21545;-78
2022/05/30 03:28:51;;;;;;;30.97;11.50;;;;;;;11.65;100.00;97952.61;1604063;90;21095;-78
2022/05/30 03:31:17;;;;;;;25.52;10.05;;;;;;;11.69;100.00;97970.88;1603797;90;21096;-78
2022/05/30 03:33:45;;;;;;;24.10;10.72;;;;;;;11.74;100.00;97986.45;1603866;90;21049;-78
2022/05/30 03:36:22;;;;;;;28.23;10.28;;;;;;;11.79;100.00;97996.04;1574621;90;21049;-78
2022/05/30 03:39:06;;;;;;;27.27;10.08;;;;;;;11.88;100.00;98004.67;1635621;86;21508;-77
2022/05/30 03:41:50;;;;;;;25.12;10.32;;;;;;;11.94;100.00;98012.75;1663563;86;21070;-77
2022/05/30 03:44:28;;;;;;;21.07;10.23;;;;;;;12.01;100.00;98018.08;1661039;86;21014;-75
2022/05/30 03:46:54;;;;;;;25.50;10.40;;;;;;;12.08;100.00;98022.88;1664060;86;21066;-77
2022/05/30 03:49:21;;;;;;;25.37;11.33;;;;;;;12.15;100.00;98026.84;1663950;86;21055;-77
2022/05/30 03:51:48;;;;;;;29.07;11.12;;;;;;;12.21;100.00;98042.70;1663791;86;21066;-77
2022/05/30 03:54:15;;;;;;;24.60;11.70;;;;;;;12.27;100.00;98058.88;1663524;86;21090;-78
2022/05/30 03:56:42;;;;;;;40.05;16.25;;;;;;;12.34;100.00;98064.17;1663832;86;21095;-77
2022/05/30 03:59:09;;;;;;;31.52;14.30;;;;;;;12.41;100.00;98072.22;1642938;85;21015;-76
2022/05/30 04:01:36;;;;;;;29.25;12.33;;;;;;;12.48;100.00;98081.92;1663964;86;21525;-77
2022/05/30 04:04:02;;;;;;;25.75;10.88;;;;;;;12.58;100.00;98100.33;1643096;86;21035;-76
2022/05/30 04:06:29;;;;;;;38.00;14.10;;;;;;;12.65;100.00;98113.25;1663805;86;21074;-76
2022/05/30 04:08:57;;;;;;;40.75;14.55;;;;;;;12.73;100.00;98131.91;1663826;86;21096;-77
2022/05/30 04:11:44;;;;;;;35.75;13.70;;;;;;;12.84;100.00;98150.63;1663592;85;21035;-77
2022/05/30 04:14:31;;;;;;;24.52;10.63;;;;;;;12.96;100.00;98164.23;1656940;85;21082;-77
2022/05/30 04:17:17;;;;;;;23.30;11.00;;;;;;;13.13;100.00;98174.40;1655074;87;21094;-76
2022/05/30 04:19:44;;;;;;;24.75;11.12;;;;;;;13.25;100.00;98195.06;1658190;87;21059;-75
2022/05/30 04:22:12;;;;;;;22.35;11.03;;;;;;;13.40;100.00;98211.45;1658385;87;21600;-75
2022/05/30 04:24:43;;;;;;;26.48;10.85;;;;;;;13.57;100.00;98229.26;1663377;86;21024;-75
2022/05/30 04:27:10;;;;;;;23.18;10.95;;;;;;;13.75;100.00;98251.41;1663693;86;21075;-75
2022/05/30 04:29:37;;;;;;;36.80;14.28;;;;;;;13.88;100.00;98286.48;1656867;86;21079;-75
2022/05/30 04:32:12;;;;;;;33.20;14.58;;;;;;;14.00;100.00;98329.42;1626987;87;21085;-75
2022/05/30 04:34:39;;;;;;;29.45;13.10;;;;;;;14.15;100.00;98361.59;1656797;87;21088;-75
2022/05/30 04:37:06;;;;;;;28.15;12.85;;;;;;;14.29;100.00;98400.27;1656671;86;21566;-74
2022/05/30 04:39:34;;;;;;;28.40;12.55;;;;;;;14.42;100.00;98434.55;1656716;87;21122;-75
2022/05/30 04:42:13;;;;;;;31.52;12.90;;;;;;;14.58;100.00;98458.34;1614571;89;21137;-75
2022/05/30 04:44:59;;;;;;;27.42;11.57;;;;;;;14.74;100.00;98489.46;1614429;89;21086;-75
2022/05/30 04:47:39;;;;;;;27.50;12.68;;;;;;;14.92;100.00;98526.61;1628011;88;21166;-74
2022/05/30 04:50:13;;;;;;;34.05;13.90;;;;;;;15.12;100.00;98559.45;1630295;88;21560;-74
2022/05/30 04:52:40;;;;;;;24.55;12.15;;;;;;;15.42;100.00;98638.84;1610702;88;21086;-73
2022/05/30 04:55:10;;;;;;;27.42;13.15;;;;;;;15.42;100.00;98638.84;1607416;89;21070;-74
2022/05/30 04:57:43;;;;;;;30.62;12.82;;;;;;;15.61;100.00;98682.60;1610919;89;21025;-73
2022/05/30 05:00:21;;;;;;;25.85;11.78;;;;;;;15.83;100.00;98698.37;1546763;93;21050;-73
2022/05/30 05:02:53;;;;;;;29.70;13.40;;;;;;;16.04;100.00;98737.32;1505625;93;21125;-75
2022/05/30 05:05:21;;;;;;;;;;;;;;;16.29;100.00;98773.05;1497164;96;21122;-73
2022/05/30 05:08:00;;;;;;;40.52;23.27;;;;;;;16.45;100.00;98836.92;1494748;96;20190;-74
2022/05/30 05:10:44;;;;;;;122.92;108.17;;;;;;;16.62;100.00;98881.52;1494616;94;21189;-73
2022/05/30 05:13:29;;;;;;;34.00;21.93;;;;;;;16.78;100.00;98929.09;1492844;95;21196;-74
2022/05/30 05:16:15;;;;;;;133.70;103.12;;;;;;;16.98;100.00;98972.95;1481443;96;21109;-71
2022/05/30 05:18:48;;;;;;;31.65;19.80;;;;;;;17.21;100.00;98996.68;1489042;96;21092;-74
2022/05/30 05:21:25;;;;;;;33.67;15.83;;;;;;;17.50;100.00;99009.06;1486789;96;21098;-73
2022/05/30 05:23:53;;;;;;;29.98;14.60;;;;;;;17.74;100.00;99034.41;1521061;94;21119;-72
2022/05/30 05:26:19;;;;;;;35.33;14.95;;;;;;;18.01;100.00;99064.25;1520954;94;21176;-76
2022/05/30 05:29:06;;;;;;;26.55;14.18;;;;;;;18.27;100.00;99095.37;1521418;94;21127;-72
2022/05/30 05:31:34;;;;;;;23.98;12.10;;;;;;;18.48;100.00;99141.75;1521344;94;21134;-73
2022/05/30 05:34:06;;;;;;;22.05;11.90;;;;;;;18.58;100.00;99178.91;1501407;94;21071;-73
2022/05/30 05:36:39;;;;;;;23.45;12.43;;;;;;;18.68;100.00;99213.84;1501945;93;21599;-73
2022/05/30 05:39:06;;;;;;;24.63;12.40;;;;;;;18.79;100.00;99228.87;1547072;92;21039;-73
2022/05/30 05:41:44;;;;;;;21.80;11.80;;;;;;;18.91;100.00;99252.14;1537899;92;21058;-78
2022/05/30 05:44:14;;;;;;;27.30;14.68;;;;;;;19.03;100.00;99271.78;1585283;89;21524;-74
2022/05/30 05:46:41;;;;;;;30.88;16.65;;;;;;;19.20;100.00;99280.05;1590903;89;21018;-76
2022/05/30 05:49:09;;;;;;;45.60;32.58;;;;;;;19.34;100.00;99302.78;1571476;91;21057;-74
2022/05/30 05:51:37;;;;;;;41.35;25.23;;;;;;;19.53;100.00;99310.25;1571694;91;21144;-75
2022/05/30 05:54:06;;;;;;;44.23;29.25;;;;;;;19.70;100.00;99331.36;1571440;91;21171;-75
2022/05/30 05:56:34;;;;;;;41.10;24.32;;;;;;;19.89;100.00;99333.36;1642689;86;21116;-79
2022/05/30 05:59:03;;;;;;;30.60;16.90;;;;;;;20.05;100.00;99346.78;1663891;85;21407;-76
2022/05/30 06:01:32;;;;;;;32.05;17.30;;;;;;;20.21;100.00;99361.03;1664062;86;21133;-77
2022/05/30 06:04:03;;;;;;;27.22;13.95;;;;;;;20.35;100.00;99374.42;1663929;85;21589;-75
2022/05/30 06:06:49;;;;;;;25.20;12.15;;;;;;;20.54;100.00;99372.20;1663588;85;21045;-76
2022/05/30 06:09:24;;;;;;;22.40;11.03;;;;;;;20.76;100.00;99378.59;1582549;89;21121;-74
2022/05/30 06:11:59;;;;;;;25.17;12.05;;;;;;;20.95;100.00;99388.74;1582433;91;21193;-74
2022/05/30 06:14:25;;;;;;;24.00;11.75;;;;;;;21.14;100.00;99400.25;1591447;89;21105;-75
2022/05/30 06:16:53;;;;;;;22.00;11.05;;;;;;;21.30;100.00;99417.77;1606036;89;21568;-77
2022/05/30 06:19:20;;;;;;;23.80;11.80;;;;;;;21.41;100.00;99425.03;1602320;89;21030;-76
2022/05/30 06:21:48;;;;;;;23.32;11.75;;;;;;;21.47;100.00;99445.20;1574542;91;21146;-78
2022/05/30 06:24:16;;;;;;;22.58;10.70;;;;;;;21.53;100.00;99448.31;1574642;91;21109;-76
2022/05/30 06:27:05;;;;;;;23.70;10.85;;;;;;;21.60;100.00;99449.46;1579531;91;21090;-77
2022/05/30 06:29:42;;;;;;;21.42;10.40;;;;;;;21.76;100.00;99447.19;1559512;92;21073;-75
2022/05/30 06:32:11;;;;;;;24.52;11.80;;;;;;;21.85;100.00;99458.55;1560376;92;21105;-78
2022/05/30 06:34:39;;;;;;;22.98;11.30;;;;;;;22.03;100.00;99455.97;1560623;92;21607;-76
2022/05/30 06:37:08;;;;;;;20.48;10.63;;;;;;;22.17;100.00;99477.03;1559301;92;21129;-71
2022/05/30 06:39:38;;;;;;;25.45;12.98;;;;;;;22.25;100.00;99488.92;1571884;91;21137;-71
2022/05/30 06:42:10;;;;;;;28.90;19.52;;;;;;;22.36;100.00;99494.86;1576142;90;21155;-71
2022/05/30 06:44:39;;;;;;;22.20;11.38;;;;;;;22.53;100.00;99516.74;1573647;91;21084;-71
2022/05/30 06:47:26;;;;;;;36.25;25.12;;;;;;;22.61;100.00;99520.11;1647344;86;21043;-73
2022/05/30 06:50:11;;;;;;;24.60;13.98;;;;;;;22.65;100.00;99528.97;1648237;86;21083;-71
2022/05/30 06:52:38;;;;;;;30.68;14.40;;;;;;;22.82;100.00;99509.52;1667321;86;21090;-74
2022/05/30 06:55:07;;;;;;;20.12;9.85;;;;;;;23.07;100.00;99519.94;1666224;86;21070;-72
2022/05/30 07:00:20;;;;;;;20.17;9.53;;;;;;;23.47;100.00;99528.69;1689082;85;21085;-72
2022/05/30 07:03:06;;;;;;;19.55;9.45;;;;;;;23.74;100.00;99536.80;1687779;85;21031;-73
2022/05/30 07:05:38;;;;;;;21.68;9.88;;;;;;;23.90;100.00;99557.03;1639876;87;21105;-74
2022/05/30 07:08:24;;;;;;;20.30;10.03;;;;;;;24.08;100.00;99695.16;1650963;87;21132;-75
2022/05/30 07:10:57;;;;;;;21.77;10.93;;;;;;;24.37;100.00;99825.99;1663304;86;21050;-72
2022/05/30 07:13:25;;;;;;;26.05;13.22;;;;;;;24.64;100.00;99900.50;1666043;86;21065;-75
2022/05/30 07:15:53;;;;;;;24.12;10.75;;;;;;;24.83;100.00;99952.87;1666717;86;21492;-75
2022/05/30 07:18:22;;;;;;;21.73;10.05;;;;;;;24.97;100.00;99973.97;1666969;86;21038;-73
2022/05/30 07:21:03;;;;;;;19.62;9.05;;;;;;;25.19;100.00;99982.09;1667081;86;21057;-75
2022/05/30 07:23:32;;;;;;;23.52;12.50;;;;;;;25.46;100.00;99982.53;1667020;86;21085;-76
2022/05/30 07:26:20;;;;;;;19.70;8.08;;;;;;;25.78;100.00;99989.80;1586422;90;21102;-74
2022/05/30 07:29:06;;;;;;;16.35;7.55;;;;;;;25.98;100.00;100000.70;1580975;90;21092;-74
2022/05/30 07:31:58;;;;;;;18.40;7.87;;;;;;;26.20;100.00;100005.97;1564884;92;21069;-74
2022/05/30 07:34:43;;;;;;;14.10;7.10;;;;;;;26.51;100.00;100004.88;1578852;91;21062;-73
2022/05/30 07:37:29;;;;;;;25.37;7.85;;;;;;;26.71;100.00;100008.20;1577045;90;21021;-71
2022/05/30 07:39:58;;;;;;;19.70;9.63;;;;;;;26.89;100.00;100008.73;1576287;91;21014;-73
2022/05/30 07:42:36;;;;;;;35.40;26.95;;;;;;;27.02;100.00;100010.94;1574234;89;21037;-73
2022/05/30 07:45:11;;;;;;;56.98;43.52;;;;;;;27.25;100.00;100021.97;1563331;91;21085;-75
2022/05/30 07:47:58;;;;;;;23.22;8.80;;;;;;;27.51;100.00;100016.33;1581294;90;21070;-72
2022/05/30 07:50:39;;;;;;;30.08;23.02;;;;;;;27.64;100.00;100026.84;1552371;92;21116;-71
2022/05/30 07:53:26;;;;;;;23.42;16.02;;;;;;;27.78;100.00;100025.66;1551502;92;21095;-72
2022/05/30 07:55:54;;;;;;;12.05;6.47;;;;;;;27.87;100.00;100013.39;1533617;93;21086;-69
2022/05/30 07:58:22;;;;;;;13.10;6.20;;;;;;;27.89;100.00;100009.76;1513738;93;21067;-69
2022/05/30 08:00:51;;;;;;;11.68;5.90;;;;;;;27.91;100.00;100018.66;1509890;95;21060;-73
2022/05/30 08:03:18;;;;;;;15.03;5.90;;;;;;;27.92;100.00;100019.48;1507728;94;21112;-72
2022/05/30 08:05:47;;;;;;;48.48;43.38;;;;;;;28.14;100.00;100010.17;1506342;95;21144;-69
2022/05/30 08:08:22;;;;;;;18.27;10.45;;;;;;;28.35;100.00;100011.42;1462162;98;21144;-72
2022/05/30 08:10:53;;;;;;;15.43;5.95;;;;;;;28.29;100.00;100006.44;1463025;98;21493;-72
2022/05/30 08:13:20;;;;;;;12.55;5.53;;;;;;;28.27;100.00;100003.13;1483080;97;21117;-72
2022/05/30 08:15:50;;;;;;;18.80;10.80;;;;;;;28.21;100.00;99995.39;1471174;97;21120;-73
2022/05/30 08:18:28;;;;;;;20.05;8.25;;;;;;;28.24;100.00;99995.35;1482384;94;21092;-73
2022/05/30 08:20:56;;;;;;;15.23;6.85;;;;;;;28.28;100.00;99995.60;1526388;94;21056;-71
2022/05/30 08:23:23;;;;;;;13.40;7.08;;;;;;;28.30;100.00;100001.16;1561900;92;21051;-74
2022/05/30 08:25:51;;;;;;;10.65;5.70;;;;;;;28.43;100.00;99995.48;1567959;91;21073;-72
2022/05/30 08:28:20;;;;;;;17.35;8.28;;;;;;;28.52;100.00;99989.55;1574619;91;21048;-75
2022/05/30 08:30:48;;;;;;;20.52;6.75;;;;;;;28.55;97.56;100002.92;1572782;91;21084;-73
2022/05/30 08:33:34;;;;;;;21.02;6.50;;;;;;;28.61;100.00;99989.79;1611092;88;21052;-74
2022/05/30 08:36:19;;;;;;;9.85;5.00;;;;;;;28.78;100.00;99981.83;1561665;90;21123;-73
2022/05/30 08:38:46;;;;;;;20.52;5.92;;;;;;;28.86;97.94;99969.78;1610911;89;21551;-73
2022/05/30 08:44:08;;;;;;;11.22;5.92;;;;;;;28.73;100.00;99966.58;1606934;89;21044;-72
2022/05/30 08:46:47;;;;;;;26.82;9.53;;;;;;;28.78;100.00;99967.92;1623103;88;21046;-74
2022/05/30 08:49:22;;;;;;;17.20;5.40;;;;;;;28.86;98.86;99967.86;1622585;86;21038;-74
2022/05/30 08:52:28;;;;;;;9.68;4.20;;;;;;;28.74;99.29;99980.77;1631390;88;21034;-74
2022/05/30 08:55:22;;;;;;;12.70;6.05;;;;;;;28.64;95.51;99975.88;1608107;88;21055;-72
2022/05/30 08:58:46;;;;;;;12.88;4.90;;;;;;;28.49;97.25;99974.87;1633565;88;21070;-72
2022/05/30 09:01:25;;;;;;;20.37;6.20;;;;;;;28.45;96.70;99982.11;1683342;85;21576;-73
2022/05/30 09:04:31;;;;;;;14.98;6.05;;;;;;;28.64;100.00;99974.48;1646248;87;21069;-72
2022/05/30 09:07:04;;;;;;;15.28;7.03;;;;;;;28.94;99.76;99971.36;1555244;91;21120;-73
2022/05/30 09:09:55;;;;;;;14.83;5.83;;;;;;;29.13;99.77;99975.61;1554254;92;21125;-74
2022/05/30 09:13:04;;;;;;;11.95;4.65;;;;;;;29.29;95.74;99969.89;1534987;92;21148;-70
2022/05/30 09:15:46;;;;;;;17.07;7.53;;;;;;;29.32;93.51;99965.09;1555937;92;21154;-71
2022/05/30 09:18:19;;;;;;;19.17;6.35;;;;;;;29.27;93.12;99959.59;1578378;91;21074;-71
2022/05/30 09:20:45;;;;;;;12.13;4.50;;;;;;;29.13;94.33;99959.48;1545111;93;21685;-71
2022/05/30 09:23:14;;;;;;;10.28;4.72;;;;;;;29.09;95.64;99964.81;1547585;93;21626;-72
2022/05/30 09:26:00;;;;;;;15.68;7.40;;;;;;;29.11;93.09;99951.96;1529056;93;21146;-73
2022/05/30 09:28:46;;;;;;;17.45;6.55;;;;;;;29.02;88.72;99950.97;1532535;94;21569;-71
2022/05/30 09:32:11;;;;;;;13.15;4.95;;;;;;;28.83;96.43;99942.55;1537150;93;21100;-74
2022/05/30 09:34:53;;;;;;;37.35;24.57;;;;;;;28.95;98.66;99948.53;1554947;92;21088;-73
2022/05/30 09:37:39;;;;;;;10.95;6.00;;;;;;;29.38;96.84;99943.03;1562697;92;21111;-71
2022/05/30 09:40:19;;;;;;;11.28;4.65;;;;;;;29.71;89.21;99942.57;1536905;93;21160;-71
2022/05/30 09:42:57;;;;;;;8.75;4.45;;;;;;;29.95;87.55;99931.91;1534662;93;21064;-71
2022/05/30 09:45:28;;;;;;;17.77;5.40;;;;;;;30.04;82.65;99934.27;1538452;93;21179;-72
2022/05/30 09:48:12;;;;;;;17.20;5.12;;;;;;;30.13;84.14;99926.62;1541613;92;21045;-72
2022/05/30 09:50:50;;;;;;;10.13;4.35;;;;;;;30.33;83.07;99934.61;1469294;98;21141;-74
2022/05/30 09:53:44;;;;;;;13.55;5.17;;;;;;;30.66;80.40;99930.44;1469033;98;21584;-73
2022/05/30 09:56:16;;;;;;;15.00;5.70;;;;;;;30.93;76.56;99935.22;1469455;98;21110;-73
2022/05/30 09:59:02;;;;;;;13.68;5.28;;;;;;;30.89;70.38;99929.98;1469196;98;21118;-73
2022/05/30 10:01:38;;;;;;;11.68;4.53;;;;;;;30.88;70.37;99928.34;1425641;101;21731;-77
2022/05/30 10:04:36;;;;;;;15.18;4.55;;;;;;;31.01;68.55;99925.32;1442229;98;21096;-76
2022/05/30 10:07:16;;;;;;;16.77;5.20;;;;;;;31.10;71.42;99935.19;1470067;98;21116;-75
2022/05/30 10:10:22;;;;;;;11.63;4.28;;;;;;;31.25;69.97;99936.24;1427103;100;21645;-71
2022/05/30 10:13:01;;;;;;;9.55;4.03;;;;;;;31.34;65.47;99933.00;1385513;104;21651;-71
2022/05/30 10:15:39;;;;;;;22.75;9.95;;;;;;;31.21;68.17;99934.64;1328240;106;21243;-71
2022/05/30 10:18:25;;;;;;;14.35;5.00;;;;;;;31.08;67.84;99933.28;1328757;108;21177;-75
2022/05/30 10:21:09;;;;;;;10.95;4.95;;;;;;;30.99;65.95;99937.38;1314478;108;21185;-72
2022/05/30 10:30:32;;;;;;;23.77;5.00;;;;;;;29.76;68.29;99953.39;1280974;112;21256;-72
2022/05/30 10:48:44;;;;;;;38.48;7.08;;;;;;;29.15;79.19;99950.30;1263873;113;21263;-74
2022/05/30 10:51:28;;;;;;;10.63;4.40;;;;;;;28.44;80.29;99935.13;1300713;109;21227;-74
2022/05/30 10:54:32;;;;;;;9.68;4.30;;;;;;;28.25;83.56;99932.27;1337951;107;21710;-71
2022/05/30 10:57:19;;;;;;;;;;;;;;;28.13;83.80;99921.52;1344327;107;21684;-72
2022/05/30 11:00:04;;;;;;;12.37;4.15;;;;;;;28.10;91.93;99929.89;1345220;107;20144;-71
2022/05/30 11:03:12;;;;;;;11.18;4.40;;;;;;;28.07;94.32;99930.47;1334923;105;21294;-73
2022/05/30 11:05:48;;;;;;;8.78;4.17;;;;;;;28.14;95.21;99924.58;1353821;104;21657;-71
2022/05/30 11:08:37;;;;;;;18.50;5.92;;;;;;;28.11;92.45;99919.59;1345620;105;21209;-72
2022/05/30 11:11:09;;;;;;;20.90;6.85;;;;;;;27.98;91.39;99922.48;1430584;100;21211;-74
2022/05/30 11:14:03;;;;;;;12.20;4.72;;;;;;;27.91;95.24;99921.98;1456361;97;21566;-73
2022/05/30 11:17:01;;;;;;;16.73;6.92;;;;;;;28.00;99.79;99914.69;1466633;96;21230;-73
2022/05/30 11:20:05;;;;;;;8.90;4.50;;;;;;;28.08;96.96;99912.66;1465245;98;21153;-74
2022/05/30 11:22:49;;;;;;;6.35;4.05;;;;;;;28.08;99.94;99904.88;1467063;97;21156;-71
2022/05/30 11:25:25;;;;;;;11.85;4.62;;;;;;;28.08;99.76;99908.48;1468308;98;21122;-73
2022/05/30 11:28:28;;;;;;;13.30;5.00;;;;;;;28.13;96.78;99920.95;1467740;98;21186;-71
2022/05/30 11:31:27;;;;;;;11.68;4.83;;;;;;;28.17;98.53;99914.25;1468465;98;21193;-71
2022/05/30 11:34:00;;;;;;;11.12;4.35;;;;;;;28.31;97.79;99914.41;1467860;98;21199;-73
2022/05/30 11:36:45;;;;;;;9.95;4.37;;;;;;;28.57;99.38;99918.62;1447632;99;21130;-71
2022/05/30 11:39:32;;;;;;;7.75;4.17;;;;;;;28.88;96.55;99913.27;1440087;99;21144;-72
2022/05/30 11:42:32;;;;;;;8.55;4.42;;;;;;;29.11;97.52;99914.38;1433399;100;21167;-72
2022/05/30 11:45:01;;;;;;;10.23;4.62;;;;;;;29.16;91.53;99912.95;1433273;98;21679;-73
2022/05/30 11:47:48;;;;;;;8.90;4.28;;;;;;;29.03;85.48;99913.67;1462495;97;21161;-73
2022/05/30 11:50:35;;;;;;;13.05;5.47;;;;;;;28.81;86.07;99911.41;1407825;102;21155;-73
2022/05/30 11:53:19;;;;;;;29.12;15.13;;;;;;;28.62;90.25;99908.02;1389543;103;21138;-74
2022/05/30 11:56:21;;;;;;;24.67;13.00;;;;;;;28.48;89.51;99900.08;1390502;103;21146;-73
2022/05/30 11:59:09;;;;;;;18.67;8.80;;;;;;;28.34;90.65;99904.09;1410916;99;21139;-76
2022/05/30 12:01:37;;;;;;;12.75;6.10;;;;;;;28.25;89.14;99898.91;1479113;97;21099;-76
2022/05/30 12:04:28;;;;;;;16.55;8.58;;;;;;;28.20;91.71;99892.25;1481437;97;21637;-76
2022/05/30 12:07:39;;;;;;;20.55;6.10;;;;;;;28.26;91.80;99888.04;1481943;97;21095;-75
2022/05/30 12:10:26;;;;;;;10.95;4.83;;;;;;;28.33;92.31;99886.59;1463373;98;21070;-74
2022/05/30 12:13:06;;;;;;;7.50;4.05;;;;;;;28.46;96.62;99887.84;1462973;98;21232;-76
2022/05/30 12:15:48;;;;;;;12.53;4.83;;;;;;;28.62;89.42;99884.38;1461012;97;21147;-74
2022/05/30 12:24:25;;;;;;;11.38;4.78;;;;;;;29.75;85.28;99876.47;1456622;96;21035;-76
2022/05/30 12:27:03;;;;;;;10.45;4.35;;;;;;;29.80;84.12;99877.27;1434150;100;21112;-74
2022/05/30 12:29:42;;;;;;;19.70;5.62;;;;;;;29.79;83.75;99876.99;1430229;100;21697;-73
2022/05/30 12:32:24;;;;;;;14.07;5.12;;;;;;;29.84;84.24;99876.91;1429483;100;21593;-74
2022/05/30 12:37:52;;;;;;;15.83;6.50;;;;;;;29.78;80.84;99874.50;1519039;93;21593;-73
2022/05/30 12:40:29;;;;;;;;;;;;;;;29.49;82.86;99878.27;1530064;93;21131;-75
2022/05/30 12:43:10;;;;;;;21.50;6.03;;;;;;;29.24;86.47;99877.50;1519006;94;20156;-74
2022/05/30 12:45:50;;;;;;;14.55;6.15;;;;;;;29.03;87.12;99876.91;1520103;94;21101;-74